Zim Mumbai — P3BA7 — position and weather

sailwx.info

Track history (hours):
 
Tides and Currents Weather Stations Pressure Air Temp Water Temp Dewpoint Dewpoint Depression Visibility Wind Speed Wind Dir Waves Ship Positions

Zim Mumbai

Last reported at 2018-Jan-05 08:30 UTC. Time now 2018-Jul-20 10:43 UTC.
Position N 25°04' E 120°35'.
Warning: this ship's position is months out of date.

Length 195.7 m; beam 32.3 m; draft 11.5 m.

Type: Cargo ship. MMSI: 212160000.

Date/timePositionNaut miles runAvg speedWind from/ knotsBaromVisibWave heightAir tempDewpointWater temp
2018-Jan-05 08:30N 25°04' E 120°35'9518.2
2018-Jan-05 03:17N 23°37' E 119°54'820.7
2018-Jan-05 02:55N 23°29' E 119°54'920.5
2018-Jan-05 02:30N 23°20' E 119°54'1020.4
2018-Jan-05 02:00N 23°10' E 119°53'1019.9
2018-Jan-05 01:30N 23°00' E 119°53'1019.5
2018-Jan-05 01:00N 22°51' E 119°53'918.3
2018-Jan-05 00:30N 22°42' E 119°50'917.3
2018-Jan-05 00:00N 22°34' E 119°46'916.8
2018-Jan-04 23:29N 22°27' E 119°41'916.2
2018-Jan-04 22:55N 22°19' E 119°35'  
2018-Jan-01 03:56N 01°16' E 104°13'716.5
2018-Jan-01 03:30N 01°15' E 104°06'816.1
2018-Jan-01 03:00N 01°14' E 103°58'815.3
2018-Jan-01 02:31N 01°11' E 103°51'4 8.7
2018-Jan-01 02:01N 01°14' E 103°47'3 5.7
2018-Jan-01 01:30N 01°16' E 103°46'0 0.0
2018-Jan-01 00:30N 01°16' E 103°46'0 0.0
2017-Dec-31 21:00N 01°16' E 103°46'0 0.0
2017-Dec-31 19:46N 01°16' E 103°46'0 0.0
2017-Dec-31 19:29N 01°16' E 103°46'0 0.0
2017-Dec-31 18:57N 01°16' E 103°46'0 0.0
2017-Dec-31 18:25N 01°16' E 103°46'0 0.0
2017-Dec-31 18:01N 01°16' E 103°46'0 0.0
2017-Dec-31 17:30N 01°16' E 103°46'0 0.0
2017-Dec-31 16:59N 01°16' E 103°46'0 0.0
2017-Dec-31 16:27N 01°16' E 103°46'0 0.0
2017-Dec-31 15:55N 01°16' E 103°46'0 0.0
2017-Dec-31 15:30N 01°16' E 103°46'0 0.0
2017-Dec-31 14:51N 01°16' E 103°46'0 0.0
2017-Dec-31 14:27N 01°16' E 103°46'0 0.0
2017-Dec-31 13:56N 01°16' E 103°46'0 0.0
2017-Dec-31 13:29N 01°16' E 103°46'0 0.0
2017-Dec-31 13:00N 01°16' E 103°46'0 0.0
2017-Dec-31 12:25N 01°16' E 103°46'0 0.0
2017-Dec-31 12:00N 01°16' E 103°46'0 0.0
2017-Dec-31 11:29N 01°16' E 103°46'0 0.2
2017-Dec-31 11:01N 01°16' E 103°46'3 6.3
2017-Dec-31 10:30N 01°13' E 103°48'1 2.5
2017-Dec-31 09:56N 01°13' E 103°49'0 0.1
2017-Dec-31 09:16N 01°13' E 103°49'0 0.2
2017-Dec-31 09:00N 01°13' E 103°49'0 0.0
2017-Dec-31 08:09N 01°13' E 103°49'0 0.1
2017-Dec-31 08:01N 01°13' E 103°49'0 0.0
2017-Dec-31 07:29N 01°13' E 103°49'0 0.0
2017-Dec-31 06:58N 01°13' E 103°49'0 0.1
2017-Dec-31 06:12N 01°13' E 103°49'0 0.0
2017-Dec-31 05:53N 01°13' E 103°49'0 0.0
2017-Dec-31 05:30N 01°13' E 103°49'0 0.0
2017-Dec-31 04:58N 01°13' E 103°49'0 0.1
2017-Dec-31 04:30N 01°13' E 103°49'0 0.3
2017-Dec-31 03:59N 01°13' E 103°49'0 0.0
2017-Dec-31 03:31N 01°13' E 103°49'0 0.1
2017-Dec-31 03:00N 01°13' E 103°49'0 0.0
2017-Dec-31 02:31N 01°13' E 103°49'0 0.0
2017-Dec-31 02:01N 01°13' E 103°49'0 0.0
2017-Dec-31 01:30N 01°13' E 103°49'0 0.0
2017-Dec-31 01:00N 01°13' E 103°49'0 0.3
2017-Dec-31 00:31N 01°13' E 103°49'0 0.2
2017-Dec-31 00:01N 01°13' E 103°49'0 0.0
2017-Dec-30 23:31N 01°13' E 103°49'0 0.2
2017-Dec-30 22:59N 01°13' E 103°49'0 0.2
2017-Dec-30 22:31N 01°13' E 103°49'0 0.2
2017-Dec-30 22:00N 01°13' E 103°49'0 0.3
2017-Dec-30 21:31N 01°13' E 103°49'0 0.3
2017-Dec-30 21:01N 01°13' E 103°49'0 0.3
2017-Dec-30 20:30N 01°13' E 103°49'0 0.3
2017-Dec-30 19:59N 01°13' E 103°49'0 0.2
2017-Dec-30 19:30N 01°13' E 103°49'0 0.3
2017-Dec-30 19:00N 01°13' E 103°49'0 0.3
2017-Dec-30 18:30N 01°13' E 103°49'1 1.3
2017-Dec-30 17:59N 01°13' E 103°48'4 8.4
2017-Dec-30 17:30N 01°15' E 103°44'510.0
2017-Dec-30 17:01N 01°12' E 103°40'4 7.5
2017-Dec-30 16:30N 01°13' E 103°36'3 5.4
2017-Dec-30 15:59N 01°13' E 103°33'4 8.0
2017-Dec-30 15:29N 01°17' E 103°33'510.2
2017-Dec-30 14:59N 01°22' E 103°33'0 0.3
2017-Dec-30 14:30N 01°22' E 103°33'0 0.0
2017-Dec-30 13:59N 01°22' E 103°33'0 0.0
2017-Dec-30 13:30N 01°22' E 103°33'0 0.0
2017-Dec-30 12:59N 01°22' E 103°33'0 0.0
2017-Dec-30 12:20N 01°22' E 103°33'0 0.0
2017-Dec-30 11:56N 01°22' E 103°33'0 0.0
2017-Dec-30 11:21N 01°22' E 103°33'0 0.0
2017-Dec-30 10:30N 01°22' E 103°33'0 0.0
2017-Dec-30 09:56N 01°22' E 103°33'0 0.0
2017-Dec-30 09:17N 01°22' E 103°33'0 0.0
2017-Dec-30 08:46N 01°22' E 103°33'0 0.0
2017-Dec-30 08:30N 01°22' E 103°33'0 0.0
2017-Dec-30 07:57N 01°22' E 103°33'0 0.0
2017-Dec-30 07:25N 01°22' E 103°33'0 0.0
2017-Dec-30 06:54N 01°22' E 103°33'0 0.0
2017-Dec-30 06:31N 01°22' E 103°33'0 0.0
2017-Dec-30 05:58N 01°22' E 103°33'0 0.0
2017-Dec-30 05:26N 01°22' E 103°33'0 0.0
2017-Dec-30 05:01N 01°22' E 103°33'0 0.0
2017-Dec-30 04:29N 01°22' E 103°33'0 0.0
2017-Dec-30 03:56N 01°22' E 103°33'0 0.0
2017-Dec-30 03:27N 01°22' E 103°33'0 0.0
2017-Dec-30 02:12N 01°22' E 103°33'0 0.0
2017-Dec-30 01:56N 01°22' E 103°33'0 0.0
2017-Dec-30 01:22N 01°22' E 103°33'0 0.0
2017-Dec-30 01:00N 01°22' E 103°33'1 2.3
2017-Dec-30 00:30N 01°21' E 103°33'510.6
2017-Dec-30 00:00N 01°15' E 103°33'4 8.2
2017-Dec-29 23:30N 01°11' E 103°32'1 2.5
2017-Dec-29 23:00N 01°10' E 103°33'0 0.8
2017-Dec-29 22:30N 01°10' E 103°32'0 0.6
2017-Dec-29 22:00N 01°11' E 103°32'1 2.3
2017-Dec-29 21:30N 01°11' E 103°33'510.5
2017-Dec-29 21:00N 01°11' E 103°38'5 9.2
2017-Dec-29 20:30N 01°09' E 103°43'4 8.7
2017-Dec-29 19:59N 01°10' E 103°47'611.5
2017-Dec-29 19:30N 01°12' E 103°52'611.5
2017-Dec-29 18:58N 01°15' E 103°58'  
Track history (hours):
 
Tides and Currents Weather Stations Pressure Air Temp Water Temp Dewpoint Dewpoint Depression Visibility Wind Speed Wind Dir Waves Ship Positions

Zim Mumbai

Last reported at 2018-Jan-05 08:30 UTC. Time now 2018-Jul-20 10:43 UTC.
Position N 25°04' E 120°35'.
Warning: this ship's position is months out of date.

Length 195.7 m; beam 32.3 m; draft 11.5 m.

Type: Cargo ship. MMSI: 212160000.

Date/timePositionNaut miles runAvg speedWind from/ knotsBaromVisibWave heightAir tempDewpointWater temp
2018-Jan-05 08:30N 25°04' E 120°35'9518.2
2018-Jan-05 03:17N 23°37' E 119°54'820.7
2018-Jan-05 02:55N 23°29' E 119°54'920.5
2018-Jan-05 02:30N 23°20' E 119°54'1020.4
2018-Jan-05 02:00N 23°10' E 119°53'1019.9
2018-Jan-05 01:30N 23°00' E 119°53'1019.5
2018-Jan-05 01:00N 22°51' E 119°53'918.3
2018-Jan-05 00:30N 22°42' E 119°50'917.3
2018-Jan-05 00:00N 22°34' E 119°46'916.8
2018-Jan-04 23:29N 22°27' E 119°41'916.2
2018-Jan-04 22:55N 22°19' E 119°35'  
2018-Jan-01 03:56N 01°16' E 104°13'716.5
2018-Jan-01 03:30N 01°15' E 104°06'816.1
2018-Jan-01 03:00N 01°14' E 103°58'815.3
2018-Jan-01 02:31N 01°11' E 103°51'4 8.7
2018-Jan-01 02:01N 01°14' E 103°47'3 5.7
2018-Jan-01 01:30N 01°16' E 103°46'0 0.0
2018-Jan-01 00:30N 01°16' E 103°46'0 0.0
2017-Dec-31 21:00N 01°16' E 103°46'0 0.0
2017-Dec-31 19:46N 01°16' E 103°46'0 0.0
2017-Dec-31 19:29N 01°16' E 103°46'0 0.0
2017-Dec-31 18:57N 01°16' E 103°46'0 0.0
2017-Dec-31 18:25N 01°16' E 103°46'0 0.0
2017-Dec-31 18:01N 01°16' E 103°46'0 0.0
2017-Dec-31 17:30N 01°16' E 103°46'0 0.0
2017-Dec-31 16:59N 01°16' E 103°46'0 0.0
2017-Dec-31 16:27N 01°16' E 103°46'0 0.0
2017-Dec-31 15:55N 01°16' E 103°46'0 0.0
2017-Dec-31 15:30N 01°16' E 103°46'0 0.0
2017-Dec-31 14:51N 01°16' E 103°46'0 0.0
2017-Dec-31 14:27N 01°16' E 103°46'0 0.0
2017-Dec-31 13:56N 01°16' E 103°46'0 0.0
2017-Dec-31 13:29N 01°16' E 103°46'0 0.0
2017-Dec-31 13:00N 01°16' E 103°46'0 0.0
2017-Dec-31 12:25N 01°16' E 103°46'0 0.0
2017-Dec-31 12:00N 01°16' E 103°46'0 0.0
2017-Dec-31 11:29N 01°16' E 103°46'0 0.2
2017-Dec-31 11:01N 01°16' E 103°46'3 6.3
2017-Dec-31 10:30N 01°13' E 103°48'1 2.5
2017-Dec-31 09:56N 01°13' E 103°49'0 0.1
2017-Dec-31 09:16N 01°13' E 103°49'0 0.2
2017-Dec-31 09:00N 01°13' E 103°49'0 0.0
2017-Dec-31 08:09N 01°13' E 103°49'0 0.1
2017-Dec-31 08:01N 01°13' E 103°49'0 0.0
2017-Dec-31 07:29N 01°13' E 103°49'0 0.0
2017-Dec-31 06:58N 01°13' E 103°49'0 0.1
2017-Dec-31 06:12N 01°13' E 103°49'0 0.0
2017-Dec-31 05:53N 01°13' E 103°49'0 0.0
2017-Dec-31 05:30N 01°13' E 103°49'0 0.0
2017-Dec-31 04:58N 01°13' E 103°49'0 0.1
2017-Dec-31 04:30N 01°13' E 103°49'0 0.3
2017-Dec-31 03:59N 01°13' E 103°49'0 0.0
2017-Dec-31 03:31N 01°13' E 103°49'0 0.1
2017-Dec-31 03:00N 01°13' E 103°49'0 0.0
2017-Dec-31 02:31N 01°13' E 103°49'0 0.0
2017-Dec-31 02:01N 01°13' E 103°49'0 0.0
2017-Dec-31 01:30N 01°13' E 103°49'0 0.0
2017-Dec-31 01:00N 01°13' E 103°49'0 0.3
2017-Dec-31 00:31N 01°13' E 103°49'0 0.2
2017-Dec-31 00:01N 01°13' E 103°49'0 0.0
2017-Dec-30 23:31N 01°13' E 103°49'0 0.2
2017-Dec-30 22:59N 01°13' E 103°49'0 0.2
2017-Dec-30 22:31N 01°13' E 103°49'0 0.2
2017-Dec-30 22:00N 01°13' E 103°49'0 0.3
2017-Dec-30 21:31N 01°13' E 103°49'0 0.3
2017-Dec-30 21:01N 01°13' E 103°49'0 0.3
2017-Dec-30 20:30N 01°13' E 103°49'0 0.3
2017-Dec-30 19:59N 01°13' E 103°49'0 0.2
2017-Dec-30 19:30N 01°13' E 103°49'0 0.3
2017-Dec-30 19:00N 01°13' E 103°49'0 0.3
2017-Dec-30 18:30N 01°13' E 103°49'1 1.3
2017-Dec-30 17:59N 01°13' E 103°48'4 8.4
2017-Dec-30 17:30N 01°15' E 103°44'510.0
2017-Dec-30 17:01N 01°12' E 103°40'4 7.5
2017-Dec-30 16:30N 01°13' E 103°36'3 5.4
2017-Dec-30 15:59N 01°13' E 103°33'4 8.0
2017-Dec-30 15:29N 01°17' E 103°33'510.2
2017-Dec-30 14:59N 01°22' E 103°33'0 0.3
2017-Dec-30 14:30N 01°22' E 103°33'0 0.0
2017-Dec-30 13:59N 01°22' E 103°33'0 0.0
2017-Dec-30 13:30N 01°22' E 103°33'0 0.0
2017-Dec-30 12:59N 01°22' E 103°33'0 0.0
2017-Dec-30 12:20N 01°22' E 103°33'0 0.0
2017-Dec-30 11:56N 01°22' E 103°33'0 0.0
2017-Dec-30 11:21N 01°22' E 103°33'0 0.0
2017-Dec-30 10:30N 01°22' E 103°33'0 0.0
2017-Dec-30 09:56N 01°22' E 103°33'0 0.0
2017-Dec-30 09:17N 01°22' E 103°33'0 0.0
2017-Dec-30 08:46N 01°22' E 103°33'0 0.0
2017-Dec-30 08:30N 01°22' E 103°33'0 0.0
2017-Dec-30 07:57N 01°22' E 103°33'0 0.0
2017-Dec-30 07:25N 01°22' E 103°33'0 0.0
2017-Dec-30 06:54N 01°22' E 103°33'0 0.0
2017-Dec-30 06:31N 01°22' E 103°33'0 0.0
2017-Dec-30 05:58N 01°22' E 103°33'0 0.0
2017-Dec-30 05:26N 01°22' E 103°33'0 0.0
2017-Dec-30 05:01N 01°22' E 103°33'0 0.0
2017-Dec-30 04:29N 01°22' E 103°33'0 0.0
2017-Dec-30 03:56N 01°22' E 103°33'0 0.0
2017-Dec-30 03:27N 01°22' E 103°33'0 0.0
2017-Dec-30 02:12N 01°22' E 103°33'0 0.0
2017-Dec-30 01:56N 01°22' E 103°33'0 0.0
2017-Dec-30 01:22N 01°22' E 103°33'0 0.0
2017-Dec-30 01:00N 01°22' E 103°33'1 2.3
2017-Dec-30 00:30N 01°21' E 103°33'510.6
2017-Dec-30 00:00N 01°15' E 103°33'4 8.2
2017-Dec-29 23:30N 01°11' E 103°32'1 2.5
2017-Dec-29 23:00N 01°10' E 103°33'0 0.8
2017-Dec-29 22:30N 01°10' E 103°32'0 0.6
2017-Dec-29 22:00N 01°11' E 103°32'1 2.3
2017-Dec-29 21:30N 01°11' E 103°33'510.5
2017-Dec-29 21:00N 01°11' E 103°38'5 9.2
2017-Dec-29 20:30N 01°09' E 103°43'4 8.7
2017-Dec-29 19:59N 01°10' E 103°47'611.5
2017-Dec-29 19:30N 01°12' E 103°52'611.5
2017-Dec-29 18:58N 01°15' E 103°58'  

Dump ship's entire track history